sensor_id;sensor_type;location;lat;lon;timestamp;P1;durP1;ratioP1;P2;durP2;ratioP2
66143;SDS011;52947;50.842;6.084;2023-05-19T00:01:48;7.63;;;2.63;;
66143;SDS011;52947;50.842;6.084;2023-05-19T00:04:18;6.43;;;2.63;;
66143;SDS011;52947;50.842;6.084;2023-05-19T00:06:48;9.30;;;2.67;;
66143;SDS011;52947;50.842;6.084;2023-05-19T00:09:19;6.15;;;2.60;;
66143;SDS011;52947;50.842;6.084;2023-05-19T00:11:48;7.15;;;2.42;;
66143;SDS011;52947;50.842;6.084;2023-05-19T00:14:17;8.03;;;2.53;;
66143;SDS011;52947;50.842;6.084;2023-05-19T00:16:45;9.40;;;2.63;;
66143;SDS011;52947;50.842;6.084;2023-05-19T00:19:14;6.28;;;2.75;;
66143;SDS011;52947;50.842;6.084;2023-05-19T00:21:42;9.60;;;2.83;;
66143;SDS011;52947;50.842;6.084;2023-05-19T00:24:10;5.38;;;2.47;;
66143;SDS011;52947;50.842;6.084;2023-05-19T00:26:39;5.70;;;2.80;;
66143;SDS011;52947;50.842;6.084;2023-05-19T00:29:08;6.60;;;2.70;;
66143;SDS011;52947;50.842;6.084;2023-05-19T00:31:36;7.97;;;2.90;;
66143;SDS011;52947;50.842;6.084;2023-05-19T00:34:03;6.90;;;2.88;;
66143;SDS011;52947;50.842;6.084;2023-05-19T00:36:32;9.85;;;3.40;;
66143;SDS011;52947;50.842;6.084;2023-05-19T00:38:59;10.15;;;3.13;;
66143;SDS011;52947;50.842;6.084;2023-05-19T00:41:27;10.77;;;2.72;;
66143;SDS011;52947;50.842;6.084;2023-05-19T00:43:57;6.40;;;2.67;;
66143;SDS011;52947;50.842;6.084;2023-05-19T00:46:25;6.25;;;2.60;;
66143;SDS011;52947;50.842;6.084;2023-05-19T00:48:54;11.35;;;3.25;;
66143;SDS011;52947;50.842;6.084;2023-05-19T00:51:22;7.72;;;3.10;;
66143;SDS011;52947;50.842;6.084;2023-05-19T00:53:51;6.30;;;3.08;;
66143;SDS011;52947;50.842;6.084;2023-05-19T00:56:20;7.20;;;3.20;;
66143;SDS011;52947;50.842;6.084;2023-05-19T00:58:48;10.93;;;3.15;;
66143;SDS011;52947;50.842;6.084;2023-05-19T01:01:19;6.07;;;3.03;;
66143;SDS011;52947;50.842;6.084;2023-05-19T01:03:48;8.63;;;3.03;;
66143;SDS011;52947;50.842;6.084;2023-05-19T01:06:16;12.27;;;3.00;;
66143;SDS011;52947;50.842;6.084;2023-05-19T01:08:47;8.27;;;2.90;;
66143;SDS011;52947;50.842;6.084;2023-05-19T01:11:15;7.50;;;2.95;;
66143;SDS011;52947;50.842;6.084;2023-05-19T01:13:43;5.95;;;3.05;;
66143;SDS011;52947;50.842;6.084;2023-05-19T01:16:11;7.55;;;2.92;;
66143;SDS011;52947;50.842;6.084;2023-05-19T01:18:49;8.43;;;3.15;;
66143;SDS011;52947;50.842;6.084;2023-05-19T01:21:34;11.00;;;3.55;;
66143;SDS011;52947;50.842;6.084;2023-05-19T01:24:23;6.95;;;3.25;;
66143;SDS011;52947;50.842;6.084;2023-05-19T01:27:13;12.88;;;3.50;;
66143;SDS011;52947;50.842;6.084;2023-05-19T01:30:11;9.03;;;3.10;;
66143;SDS011;52947;50.842;6.084;2023-05-19T01:32:47;7.13;;;3.38;;
66143;SDS011;52947;50.842;6.084;2023-05-19T01:35:18;11.65;;;3.72;;
66143;SDS011;52947;50.842;6.084;2023-05-19T01:37:49;8.05;;;3.50;;
66143;SDS011;52947;50.842;6.084;2023-05-19T01:40:18;7.93;;;2.97;;
66143;SDS011;52947;50.842;6.084;2023-05-19T01:42:49;6.15;;;3.00;;
66143;SDS011;52947;50.842;6.084;2023-05-19T01:45:22;7.00;;;2.60;;
66143;SDS011;52947;50.842;6.084;2023-05-19T01:47:52;8.35;;;3.10;;
66143;SDS011;52947;50.842;6.084;2023-05-19T01:50:21;6.63;;;3.03;;
66143;SDS011;52947;50.842;6.084;2023-05-19T01:52:50;6.20;;;3.00;;
66143;SDS011;52947;50.842;6.084;2023-05-19T01:55:18;5.93;;;3.17;;
66143;SDS011;52947;50.842;6.084;2023-05-19T01:57:52;7.10;;;3.35;;
66143;SDS011;52947;50.842;6.084;2023-05-19T02:00:30;7.80;;;3.13;;
66143;SDS011;52947;50.842;6.084;2023-05-19T02:03:08;6.18;;;2.75;;
66143;SDS011;52947;50.842;6.084;2023-05-19T02:05:50;7.43;;;3.10;;
66143;SDS011;52947;50.842;6.084;2023-05-19T02:08:23;7.53;;;3.00;;
66143;SDS011;52947;50.842;6.084;2023-05-19T02:10:57;8.13;;;2.90;;
66143;SDS011;52947;50.842;6.084;2023-05-19T02:13:30;5.97;;;3.05;;
66143;SDS011;52947;50.842;6.084;2023-05-19T02:16:04;4.95;;;2.80;;
66143;SDS011;52947;50.842;6.084;2023-05-19T02:18:33;6.03;;;3.03;;
66143;SDS011;52947;50.842;6.084;2023-05-19T02:21:01;5.93;;;3.15;;
66143;SDS011;52947;50.842;6.084;2023-05-19T02:23:29;8.48;;;3.83;;
66143;SDS011;52947;50.842;6.084;2023-05-19T02:25:57;8.82;;;4.10;;
66143;SDS011;52947;50.842;6.084;2023-05-19T02:28:26;6.20;;;2.97;;
66143;SDS011;52947;50.842;6.084;2023-05-19T02:30:54;6.85;;;2.88;;
66143;SDS011;52947;50.842;6.084;2023-05-19T02:33:23;7.47;;;3.72;;
66143;SDS011;52947;50.842;6.084;2023-05-19T02:35:52;8.52;;;2.95;;
66143;SDS011;52947;50.842;6.084;2023-05-19T02:38:22;7.80;;;3.05;;
66143;SDS011;52947;50.842;6.084;2023-05-19T02:40:51;6.20;;;2.95;;
66143;SDS011;52947;50.842;6.084;2023-05-19T02:43:19;8.18;;;3.30;;
66143;SDS011;52947;50.842;6.084;2023-05-19T02:45:47;7.60;;;3.13;;
66143;SDS011;52947;50.842;6.084;2023-05-19T02:48:15;9.43;;;3.80;;
66143;SDS011;52947;50.842;6.084;2023-05-19T02:50:44;7.03;;;3.85;;
66143;SDS011;52947;50.842;6.084;2023-05-19T02:53:12;10.95;;;4.43;;
66143;SDS011;52947;50.842;6.084;2023-05-19T02:55:41;11.75;;;3.72;;
66143;SDS011;52947;50.842;6.084;2023-05-19T02:58:08;8.00;;;3.70;;
66143;SDS011;52947;50.842;6.084;2023-05-19T03:00:36;5.72;;;3.65;;
66143;SDS011;52947;50.842;6.084;2023-05-19T03:03:04;10.98;;;3.83;;
66143;SDS011;52947;50.842;6.084;2023-05-19T03:05:32;7.20;;;3.22;;
66143;SDS011;52947;50.842;6.084;2023-05-19T03:08:03;5.97;;;2.90;;
66143;SDS011;52947;50.842;6.084;2023-05-19T03:10:31;6.38;;;2.75;;
66143;SDS011;52947;50.842;6.084;2023-05-19T03:12:59;7.22;;;3.20;;
66143;SDS011;52947;50.842;6.084;2023-05-19T03:15:27;5.70;;;2.45;;
66143;SDS011;52947;50.842;6.084;2023-05-19T03:17:56;5.88;;;2.45;;
66143;SDS011;52947;50.842;6.084;2023-05-19T03:20:24;7.45;;;2.90;;
66143;SDS011;52947;50.842;6.084;2023-05-19T03:22:51;10.55;;;3.20;;
66143;SDS011;52947;50.842;6.084;2023-05-19T03:25:21;6.90;;;3.20;;
66143;SDS011;52947;50.842;6.084;2023-05-19T03:27:49;5.57;;;2.70;;
66143;SDS011;52947;50.842;6.084;2023-05-19T03:30:17;8.27;;;3.10;;
66143;SDS011;52947;50.842;6.084;2023-05-19T03:32:56;6.28;;;3.20;;
66143;SDS011;52947;50.842;6.084;2023-05-19T03:35:27;7.05;;;3.67;;
66143;SDS011;52947;50.842;6.084;2023-05-19T03:37:55;7.47;;;3.78;;
66143;SDS011;52947;50.842;6.084;2023-05-19T03:40:25;9.02;;;3.60;;
66143;SDS011;52947;50.842;6.084;2023-05-19T03:43:01;5.88;;;3.85;;
66143;SDS011;52947;50.842;6.084;2023-05-19T03:45:31;7.43;;;3.53;;
66143;SDS011;52947;50.842;6.084;2023-05-19T03:48:10;5.88;;;3.15;;
66143;SDS011;52947;50.842;6.084;2023-05-19T03:51:10;7.53;;;3.50;;
66143;SDS011;52947;50.842;6.084;2023-05-19T03:53:38;6.57;;;3.92;;
66143;SDS011;52947;50.842;6.084;2023-05-19T03:56:08;6.22;;;3.63;;
66143;SDS011;52947;50.842;6.084;2023-05-19T03:58:39;7.90;;;3.70;;
66143;SDS011;52947;50.842;6.084;2023-05-19T04:01:09;7.93;;;3.38;;
66143;SDS011;52947;50.842;6.084;2023-05-19T04:03:37;8.40;;;3.65;;
66143;SDS011;52947;50.842;6.084;2023-05-19T04:06:06;9.70;;;3.25;;
66143;SDS011;52947;50.842;6.084;2023-05-19T04:08:35;6.43;;;3.23;;
66143;SDS011;52947;50.842;6.084;2023-05-19T04:11:03;4.95;;;3.03;;
66143;SDS011;52947;50.842;6.084;2023-05-19T04:13:32;6.28;;;3.38;;
66143;SDS011;52947;50.842;6.084;2023-05-19T04:16:01;6.00;;;3.00;;
66143;SDS011;52947;50.842;6.084;2023-05-19T04:18:29;7.22;;;3.10;;
66143;SDS011;52947;50.842;6.084;2023-05-19T04:20:57;5.85;;;3.45;;
66143;SDS011;52947;50.842;6.084;2023-05-19T04:23:25;7.65;;;3.70;;
66143;SDS011;52947;50.842;6.084;2023-05-19T04:25:53;6.47;;;3.22;;
66143;SDS011;52947;50.842;6.084;2023-05-19T04:28:22;4.93;;;2.60;;
66143;SDS011;52947;50.842;6.084;2023-05-19T04:30:51;10.15;;;3.92;;
66143;SDS011;52947;50.842;6.084;2023-05-19T04:33:20;8.00;;;3.25;;
66143;SDS011;52947;50.842;6.084;2023-05-19T04:35:48;5.43;;;3.22;;
66143;SDS011;52947;50.842;6.084;2023-05-19T04:38:17;6.28;;;2.97;;
66143;SDS011;52947;50.842;6.084;2023-05-19T04:40:48;5.13;;;2.80;;
66143;SDS011;52947;50.842;6.084;2023-05-19T04:43:17;7.78;;;3.08;;
66143;SDS011;52947;50.842;6.084;2023-05-19T04:45:48;8.13;;;3.17;;
66143;SDS011;52947;50.842;6.084;2023-05-19T04:48:19;6.32;;;3.40;;
66143;SDS011;52947;50.842;6.084;2023-05-19T04:50:48;7.55;;;3.33;;
66143;SDS011;52947;50.842;6.084;2023-05-19T04:53:17;5.25;;;3.25;;
66143;SDS011;52947;50.842;6.084;2023-05-19T04:55:47;6.57;;;3.47;;
66143;SDS011;52947;50.842;6.084;2023-05-19T04:58:15;6.00;;;3.50;;
66143;SDS011;52947;50.842;6.084;2023-05-19T05:00:44;9.57;;;4.00;;
66143;SDS011;52947;50.842;6.084;2023-05-19T05:03:12;8.70;;;3.35;;
66143;SDS011;52947;50.842;6.084;2023-05-19T05:05:43;6.63;;;3.60;;
66143;SDS011;52947;50.842;6.084;2023-05-19T05:08:11;6.70;;;3.42;;
66143;SDS011;52947;50.842;6.084;2023-05-19T05:10:41;8.32;;;3.20;;
66143;SDS011;52947;50.842;6.084;2023-05-19T05:13:09;6.15;;;3.45;;
66143;SDS011;52947;50.842;6.084;2023-05-19T05:15:38;6.45;;;3.58;;
66143;SDS011;52947;50.842;6.084;2023-05-19T05:18:07;14.38;;;4.07;;
66143;SDS011;52947;50.842;6.084;2023-05-19T05:20:35;7.80;;;3.78;;
66143;SDS011;52947;50.842;6.084;2023-05-19T05:23:06;10.55;;;3.10;;
66143;SDS011;52947;50.842;6.084;2023-05-19T05:25:36;11.02;;;4.03;;
66143;SDS011;52947;50.842;6.084;2023-05-19T05:28:05;10.60;;;3.80;;
66143;SDS011;52947;50.842;6.084;2023-05-19T05:30:35;7.20;;;3.22;;
66143;SDS011;52947;50.842;6.084;2023-05-19T05:33:05;12.50;;;4.38;;
66143;SDS011;52947;50.842;6.084;2023-05-19T05:35:36;10.45;;;4.18;;
66143;SDS011;52947;50.842;6.084;2023-05-19T05:38:07;8.77;;;3.45;;
66143;SDS011;52947;50.842;6.084;2023-05-19T05:40:37;8.70;;;3.15;;
66143;SDS011;52947;50.842;6.084;2023-05-19T05:43:04;12.18;;;4.05;;
66143;SDS011;52947;50.842;6.084;2023-05-19T05:45:38;8.32;;;3.72;;
66143;SDS011;52947;50.842;6.084;2023-05-19T05:48:06;12.80;;;4.30;;
66143;SDS011;52947;50.842;6.084;2023-05-19T05:50:35;11.57;;;3.80;;
66143;SDS011;52947;50.842;6.084;2023-05-19T05:53:03;13.80;;;3.75;;
66143;SDS011;52947;50.842;6.084;2023-05-19T05:55:37;8.02;;;3.50;;
66143;SDS011;52947;50.842;6.084;2023-05-19T05:58:06;14.25;;;3.38;;
66143;SDS011;52947;50.842;6.084;2023-05-19T06:00:36;7.40;;;3.20;;
66143;SDS011;52947;50.842;6.084;2023-05-19T06:03:04;8.27;;;3.10;;
66143;SDS011;52947;50.842;6.084;2023-05-19T06:05:32;10.05;;;3.17;;
66143;SDS011;52947;50.842;6.084;2023-05-19T06:08:00;8.18;;;3.88;;
66143;SDS011;52947;50.842;6.084;2023-05-19T06:10:28;10.50;;;3.75;;
66143;SDS011;52947;50.842;6.084;2023-05-19T06:15:26;9.68;;;3.50;;
66143;SDS011;52947;50.842;6.084;2023-05-19T06:18:08;12.00;;;3.47;;
66143;SDS011;52947;50.842;6.084;2023-05-19T06:20:38;6.72;;;3.42;;
66143;SDS011;52947;50.842;6.084;2023-05-19T06:23:06;13.23;;;3.83;;
66143;SDS011;52947;50.842;6.084;2023-05-19T06:25:34;7.95;;;3.08;;
66143;SDS011;52947;50.842;6.084;2023-05-19T06:28:05;8.50;;;3.10;;
66143;SDS011;52947;50.842;6.084;2023-05-19T06:30:32;9.85;;;3.45;;
66143;SDS011;52947;50.842;6.084;2023-05-19T06:33:15;10.15;;;3.42;;
66143;SDS011;52947;50.842;6.084;2023-05-19T06:35:43;7.63;;;3.50;;
66143;SDS011;52947;50.842;6.084;2023-05-19T06:38:13;7.07;;;3.50;;
66143;SDS011;52947;50.842;6.084;2023-05-19T06:40:41;9.80;;;3.67;;
66143;SDS011;52947;50.842;6.084;2023-05-19T06:43:11;9.30;;;3.20;;
66143;SDS011;52947;50.842;6.084;2023-05-19T06:45:53;7.13;;;3.38;;
66143;SDS011;52947;50.842;6.084;2023-05-19T06:48:23;8.75;;;3.05;;
66143;SDS011;52947;50.842;6.084;2023-05-19T06:50:51;6.63;;;2.90;;
66143;SDS011;52947;50.842;6.084;2023-05-19T06:53:19;8.95;;;3.67;;
66143;SDS011;52947;50.842;6.084;2023-05-19T06:55:50;7.05;;;2.90;;
66143;SDS011;52947;50.842;6.084;2023-05-19T06:58:28;5.32;;;2.45;;
66143;SDS011;52947;50.842;6.084;2023-05-19T07:00:58;7.50;;;3.10;;
66143;SDS011;52947;50.842;6.084;2023-05-19T07:03:31;5.75;;;2.90;;
66143;SDS011;52947;50.842;6.084;2023-05-19T07:05:59;8.20;;;2.90;;
66143;SDS011;52947;50.842;6.084;2023-05-19T07:08:27;12.40;;;3.55;;
66143;SDS011;52947;50.842;6.084;2023-05-19T07:10:58;6.70;;;2.75;;
66143;SDS011;52947;50.842;6.084;2023-05-19T07:13:28;5.75;;;2.70;;
66143;SDS011;52947;50.842;6.084;2023-05-19T07:15:58;8.68;;;2.55;;
66143;SDS011;52947;50.842;6.084;2023-05-19T07:18:27;10.38;;;2.78;;
66143;SDS011;52947;50.842;6.084;2023-05-19T07:20:57;7.65;;;2.47;;
66143;SDS011;52947;50.842;6.084;2023-05-19T07:23:25;6.93;;;2.80;;
66143;SDS011;52947;50.842;6.084;2023-05-19T07:25:53;12.17;;;2.47;;
66143;SDS011;52947;50.842;6.084;2023-05-19T07:28:22;6.45;;;2.60;;
66143;SDS011;52947;50.842;6.084;2023-05-19T07:30:51;6.10;;;2.33;;
66143;SDS011;52947;50.842;6.084;2023-05-19T07:33:19;6.50;;;2.75;;
66143;SDS011;52947;50.842;6.084;2023-05-19T07:35:47;7.55;;;2.88;;
66143;SDS011;52947;50.842;6.084;2023-05-19T07:38:15;8.68;;;3.25;;
66143;SDS011;52947;50.842;6.084;2023-05-19T07:40:43;8.35;;;2.72;;
66143;SDS011;52947;50.842;6.084;2023-05-19T07:43:11;7.80;;;2.70;;
66143;SDS011;52947;50.842;6.084;2023-05-19T07:45:39;9.03;;;2.80;;
66143;SDS011;52947;50.842;6.084;2023-05-19T07:48:08;10.15;;;3.40;;
66143;SDS011;52947;50.842;6.084;2023-05-19T07:50:36;7.63;;;2.35;;
66143;SDS011;52947;50.842;6.084;2023-05-19T07:53:04;7.07;;;2.43;;
66143;SDS011;52947;50.842;6.084;2023-05-19T07:55:32;9.30;;;2.42;;
66143;SDS011;52947;50.842;6.084;2023-05-19T07:58:00;5.17;;;2.30;;
66143;SDS011;52947;50.842;6.084;2023-05-19T08:00:28;7.10;;;2.75;;
66143;SDS011;52947;50.842;6.084;2023-05-19T08:02:56;6.28;;;2.40;;
66143;SDS011;52947;50.842;6.084;2023-05-19T08:05:26;11.63;;;3.35;;
66143;SDS011;52947;50.842;6.084;2023-05-19T08:07:55;9.15;;;2.92;;
66143;SDS011;52947;50.842;6.084;2023-05-19T08:10:23;7.35;;;2.45;;
66143;SDS011;52947;50.842;6.084;2023-05-19T08:12:50;11.07;;;2.97;;
66143;SDS011;52947;50.842;6.084;2023-05-19T08:15:18;9.53;;;3.40;;
66143;SDS011;52947;50.842;6.084;2023-05-19T08:17:47;5.95;;;2.33;;
66143;SDS011;52947;50.842;6.084;2023-05-19T08:20:15;7.78;;;2.88;;
66143;SDS011;52947;50.842;6.084;2023-05-19T08:22:44;11.18;;;2.80;;
66143;SDS011;52947;50.842;6.084;2023-05-19T08:25:12;8.95;;;2.95;;
66143;SDS011;52947;50.842;6.084;2023-05-19T08:27:40;5.75;;;2.30;;
66143;SDS011;52947;50.842;6.084;2023-05-19T08:30:08;7.97;;;2.90;;
66143;SDS011;52947;50.842;6.084;2023-05-19T08:32:37;11.88;;;2.67;;
66143;SDS011;52947;50.842;6.084;2023-05-19T08:35:05;5.85;;;2.47;;
66143;SDS011;52947;50.842;6.084;2023-05-19T08:37:33;8.10;;;2.60;;
66143;SDS011;52947;50.842;6.084;2023-05-19T08:42:32;11.55;;;2.95;;
66143;SDS011;52947;50.842;6.084;2023-05-19T08:45:00;8.70;;;2.70;;
66143;SDS011;52947;50.842;6.084;2023-05-19T08:47:29;8.50;;;2.67;;
66143;SDS011;52947;50.842;6.084;2023-05-19T08:50:00;9.35;;;3.00;;
66143;SDS011;52947;50.842;6.084;2023-05-19T08:52:34;10.63;;;2.85;;
66143;SDS011;52947;50.842;6.084;2023-05-19T08:55:17;10.63;;;2.83;;
66143;SDS011;52947;50.842;6.084;2023-05-19T08:57:56;8.05;;;2.92;;
66143;SDS011;52947;50.842;6.084;2023-05-19T09:00:25;12.63;;;3.88;;
66143;SDS011;52947;50.842;6.084;2023-05-19T09:02:53;9.93;;;2.83;;
66143;SDS011;52947;50.842;6.084;2023-05-19T09:05:42;9.07;;;2.47;;
66143;SDS011;52947;50.842;6.084;2023-05-19T09:08:10;6.10;;;2.40;;
66143;SDS011;52947;50.842;6.084;2023-05-19T09:10:40;11.10;;;3.00;;
66143;SDS011;52947;50.842;6.084;2023-05-19T09:13:08;9.43;;;2.72;;
66143;SDS011;52947;50.842;6.084;2023-05-19T09:15:36;11.10;;;2.63;;
66143;SDS011;52947;50.842;6.084;2023-05-19T09:18:06;6.43;;;2.03;;
66143;SDS011;52947;50.842;6.084;2023-05-19T09:20:36;6.90;;;2.70;;
66143;SDS011;52947;50.842;6.084;2023-05-19T09:23:06;5.75;;;2.35;;
66143;SDS011;52947;50.842;6.084;2023-05-19T09:25:34;6.00;;;2.65;;
66143;SDS011;52947;50.842;6.084;2023-05-19T09:28:03;6.18;;;2.03;;
66143;SDS011;52947;50.842;6.084;2023-05-19T09:30:35;6.63;;;2.47;;
66143;SDS011;52947;50.842;6.084;2023-05-19T09:33:03;11.70;;;2.80;;
66143;SDS011;52947;50.842;6.084;2023-05-19T09:35:35;11.65;;;2.92;;
66143;SDS011;52947;50.842;6.084;2023-05-19T09:38:03;6.72;;;2.38;;
66143;SDS011;52947;50.842;6.084;2023-05-19T09:40:31;11.32;;;3.38;;
66143;SDS011;52947;50.842;6.084;2023-05-19T09:43:04;12.98;;;2.85;;
66143;SDS011;52947;50.842;6.084;2023-05-19T09:45:34;5.93;;;2.30;;
66143;SDS011;52947;50.842;6.084;2023-05-19T09:48:02;12.93;;;2.72;;
66143;SDS011;52947;50.842;6.084;2023-05-19T09:50:31;6.97;;;2.50;;
66143;SDS011;52947;50.842;6.084;2023-05-19T09:52:59;9.20;;;2.67;;
66143;SDS011;52947;50.842;6.084;2023-05-19T09:55:28;10.15;;;2.75;;
66143;SDS011;52947;50.842;6.084;2023-05-19T09:57:58;9.30;;;2.45;;
66143;SDS011;52947;50.842;6.084;2023-05-19T10:00:31;10.13;;;2.90;;
66143;SDS011;52947;50.842;6.084;2023-05-19T10:03:00;6.82;;;2.50;;
66143;SDS011;52947;50.842;6.084;2023-05-19T10:05:31;13.27;;;2.90;;
66143;SDS011;52947;50.842;6.084;2023-05-19T10:08:00;8.35;;;2.33;;
66143;SDS011;52947;50.842;6.084;2023-05-19T10:10:32;5.65;;;2.10;;
66143;SDS011;52947;50.842;6.084;2023-05-19T10:13:00;6.63;;;2.20;;
66143;SDS011;52947;50.842;6.084;2023-05-19T10:15:30;7.50;;;2.15;;
66143;SDS011;52947;50.842;6.084;2023-05-19T10:18:12;7.07;;;2.05;;
66143;SDS011;52947;50.842;6.084;2023-05-19T10:20:44;16.67;;;2.30;;
66143;SDS011;52947;50.842;6.084;2023-05-19T10:23:13;6.47;;;2.42;;
66143;SDS011;52947;50.842;6.084;2023-05-19T10:25:40;4.57;;;2.22;;
66143;SDS011;52947;50.842;6.084;2023-05-19T10:28:10;11.68;;;2.72;;
66143;SDS011;52947;50.842;6.084;2023-05-19T10:30:45;7.80;;;2.50;;
66143;SDS011;52947;50.842;6.084;2023-05-19T10:33:16;5.82;;;2.58;;
66143;SDS011;52947;50.842;6.084;2023-05-19T10:35:54;8.30;;;3.00;;
66143;SDS011;52947;50.842;6.084;2023-05-19T10:38:38;6.50;;;2.28;;
66143;SDS011;52947;50.842;6.084;2023-05-19T10:41:11;7.38;;;2.58;;
66143;SDS011;52947;50.842;6.084;2023-05-19T10:43:48;8.30;;;2.38;;
66143;SDS011;52947;50.842;6.084;2023-05-19T10:46:24;15.77;;;2.88;;
66143;SDS011;52947;50.842;6.084;2023-05-19T10:48:53;9.40;;;2.58;;
66143;SDS011;52947;50.842;6.084;2023-05-19T10:51:27;5.60;;;2.10;;
66143;SDS011;52947;50.842;6.084;2023-05-19T10:53:56;7.50;;;2.25;;
66143;SDS011;52947;50.842;6.084;2023-05-19T10:56:28;9.27;;;2.40;;
66143;SDS011;52947;50.842;6.084;2023-05-19T10:58:59;8.73;;;2.28;;
66143;SDS011;52947;50.842;6.084;2023-05-19T11:01:30;13.07;;;2.72;;
66143;SDS011;52947;50.842;6.084;2023-05-19T11:04:03;7.53;;;2.83;;
66143;SDS011;52947;50.842;6.084;2023-05-19T11:06:32;8.38;;;2.58;;
66143;SDS011;52947;50.842;6.084;2023-05-19T11:09:08;5.50;;;2.20;;
66143;SDS011;52947;50.842;6.084;2023-05-19T11:11:43;6.38;;;2.28;;
66143;SDS011;52947;50.842;6.084;2023-05-19T11:14:13;7.93;;;2.35;;
66143;SDS011;52947;50.842;6.084;2023-05-19T11:19:16;8.15;;;2.33;;
66143;SDS011;52947;50.842;6.084;2023-05-19T11:21:46;8.27;;;2.25;;
66143;SDS011;52947;50.842;6.084;2023-05-19T11:24:34;7.47;;;2.17;;
66143;SDS011;52947;50.842;6.084;2023-05-19T11:29:53;7.38;;;2.28;;
66143;SDS011;52947;50.842;6.084;2023-05-19T11:32:25;8.20;;;2.58;;
66143;SDS011;52947;50.842;6.084;2023-05-19T11:34:54;8.30;;;2.30;;
66143;SDS011;52947;50.842;6.084;2023-05-19T11:37:23;6.65;;;2.50;;
66143;SDS011;52947;50.842;6.084;2023-05-19T11:39:51;7.97;;;2.50;;
66143;SDS011;52947;50.842;6.084;2023-05-19T11:42:19;6.47;;;2.20;;
66143;SDS011;52947;50.842;6.084;2023-05-19T11:44:48;9.65;;;2.33;;
66143;SDS011;52947;50.842;6.084;2023-05-19T11:47:16;9.40;;;2.70;;
66143;SDS011;52947;50.842;6.084;2023-05-19T11:49:45;7.20;;;2.00;;
66143;SDS011;52947;50.842;6.084;2023-05-19T11:52:14;6.35;;;2.83;;
66143;SDS011;52947;50.842;6.084;2023-05-19T11:54:42;6.72;;;2.60;;
66143;SDS011;52947;50.842;6.084;2023-05-19T11:57:15;9.55;;;2.55;;
66143;SDS011;52947;50.842;6.084;2023-05-19T11:59:43;6.10;;;1.90;;
66143;SDS011;52947;50.842;6.084;2023-05-19T12:02:15;8.38;;;2.55;;
66143;SDS011;52947;50.842;6.084;2023-05-19T12:04:44;4.70;;;2.05;;
66143;SDS011;52947;50.842;6.084;2023-05-19T12:07:14;8.15;;;2.17;;
66143;SDS011;52947;50.842;6.084;2023-05-19T12:09:43;8.13;;;1.85;;
66143;SDS011;52947;50.842;6.084;2023-05-19T12:12:12;10.57;;;3.00;;
66143;SDS011;52947;50.842;6.084;2023-05-19T12:14:42;4.82;;;2.13;;
66143;SDS011;52947;50.842;6.084;2023-05-19T12:17:10;6.68;;;2.60;;
66143;SDS011;52947;50.842;6.084;2023-05-19T12:22:09;5.00;;;2.42;;
66143;SDS011;52947;50.842;6.084;2023-05-19T12:24:37;6.72;;;1.95;;
66143;SDS011;52947;50.842;6.084;2023-05-19T12:27:09;6.90;;;2.40;;
66143;SDS011;52947;50.842;6.084;2023-05-19T12:29:39;6.85;;;2.22;;
66143;SDS011;52947;50.842;6.084;2023-05-19T12:32:07;6.30;;;2.23;;
66143;SDS011;52947;50.842;6.084;2023-05-19T12:34:35;6.95;;;2.65;;
66143;SDS011;52947;50.842;6.084;2023-05-19T12:37:04;7.97;;;2.50;;
66143;SDS011;52947;50.842;6.084;2023-05-19T12:39:34;7.83;;;2.40;;
66143;SDS011;52947;50.842;6.084;2023-05-19T12:42:03;8.10;;;2.28;;
66143;SDS011;52947;50.842;6.084;2023-05-19T12:44:35;6.03;;;2.67;;
66143;SDS011;52947;50.842;6.084;2023-05-19T12:47:03;8.18;;;2.80;;
66143;SDS011;52947;50.842;6.084;2023-05-19T12:49:32;9.20;;;2.30;;
66143;SDS011;52947;50.842;6.084;2023-05-19T12:52:00;9.13;;;2.67;;
66143;SDS011;52947;50.842;6.084;2023-05-19T12:54:36;9.75;;;2.78;;
66143;SDS011;52947;50.842;6.084;2023-05-19T12:57:04;4.60;;;2.15;;
66143;SDS011;52947;50.842;6.084;2023-05-19T12:59:32;8.85;;;2.20;;
66143;SDS011;52947;50.842;6.084;2023-05-19T13:02:04;4.18;;;2.28;;
66143;SDS011;52947;50.842;6.084;2023-05-19T13:04:33;5.78;;;2.60;;
66143;SDS011;52947;50.842;6.084;2023-05-19T13:07:01;9.10;;;2.50;;
66143;SDS011;52947;50.842;6.084;2023-05-19T13:09:29;8.52;;;2.60;;
66143;SDS011;52947;50.842;6.084;2023-05-19T13:12:01;6.72;;;2.10;;
66143;SDS011;52947;50.842;6.084;2023-05-19T13:14:30;9.98;;;2.47;;
66143;SDS011;52947;50.842;6.084;2023-05-19T13:16:58;8.05;;;2.55;;
66143;SDS011;52947;50.842;6.084;2023-05-19T13:19:26;9.00;;;2.55;;
66143;SDS011;52947;50.842;6.084;2023-05-19T13:21:54;7.55;;;2.58;;
66143;SDS011;52947;50.842;6.084;2023-05-19T13:24:21;9.82;;;2.00;;
66143;SDS011;52947;50.842;6.084;2023-05-19T13:26:49;5.53;;;2.05;;
66143;SDS011;52947;50.842;6.084;2023-05-19T13:29:20;5.88;;;2.20;;
66143;SDS011;52947;50.842;6.084;2023-05-19T13:31:48;10.48;;;2.80;;
66143;SDS011;52947;50.842;6.084;2023-05-19T13:34:16;5.85;;;2.00;;
66143;SDS011;52947;50.842;6.084;2023-05-19T13:36:45;5.88;;;1.98;;
66143;SDS011;52947;50.842;6.084;2023-05-19T13:39:14;5.68;;;1.95;;
66143;SDS011;52947;50.842;6.084;2023-05-19T13:41:42;6.53;;;2.35;;
66143;SDS011;52947;50.842;6.084;2023-05-19T13:44:10;11.75;;;2.28;;
66143;SDS011;52947;50.842;6.084;2023-05-19T13:46:39;8.98;;;2.08;;
66143;SDS011;52947;50.842;6.084;2023-05-19T13:49:11;11.32;;;2.08;;
66143;SDS011;52947;50.842;6.084;2023-05-19T13:51:41;10.82;;;2.53;;
66143;SDS011;52947;50.842;6.084;2023-05-19T13:54:09;5.68;;;2.10;;
66143;SDS011;52947;50.842;6.084;2023-05-19T13:56:38;6.90;;;1.88;;
66143;SDS011;52947;50.842;6.084;2023-05-19T13:59:06;11.27;;;2.10;;
66143;SDS011;52947;50.842;6.084;2023-05-19T14:01:33;14.60;;;2.70;;
66143;SDS011;52947;50.842;6.084;2023-05-19T14:04:04;5.13;;;2.15;;
66143;SDS011;52947;50.842;6.084;2023-05-19T14:06:32;5.72;;;2.20;;
66143;SDS011;52947;50.842;6.084;2023-05-19T14:09:00;9.35;;;2.30;;
66143;SDS011;52947;50.842;6.084;2023-05-19T14:11:28;9.30;;;2.80;;
66143;SDS011;52947;50.842;6.084;2023-05-19T14:13:56;13.13;;;2.17;;
66143;SDS011;52947;50.842;6.084;2023-05-19T14:16:24;7.30;;;2.22;;
66143;SDS011;52947;50.842;6.084;2023-05-19T14:18:54;8.25;;;2.13;;
66143;SDS011;52947;50.842;6.084;2023-05-19T14:21:23;7.07;;;2.17;;
66143;SDS011;52947;50.842;6.084;2023-05-19T14:23:52;8.50;;;2.30;;
66143;SDS011;52947;50.842;6.084;2023-05-19T14:26:20;7.53;;;2.35;;
66143;SDS011;52947;50.842;6.084;2023-05-19T14:28:47;9.23;;;2.30;;
66143;SDS011;52947;50.842;6.084;2023-05-19T14:31:15;6.15;;;1.90;;
66143;SDS011;52947;50.842;6.084;2023-05-19T14:33:43;12.55;;;2.38;;
66143;SDS011;52947;50.842;6.084;2023-05-19T14:36:11;6.07;;;2.22;;
66143;SDS011;52947;50.842;6.084;2023-05-19T14:38:41;8.45;;;2.75;;
66143;SDS011;52947;50.842;6.084;2023-05-19T14:41:08;6.85;;;2.20;;
66143;SDS011;52947;50.842;6.084;2023-05-19T14:43:36;7.05;;;1.98;;
66143;SDS011;52947;50.842;6.084;2023-05-19T14:46:06;6.65;;;2.10;;
66143;SDS011;52947;50.842;6.084;2023-05-19T14:48:34;11.85;;;2.75;;
66143;SDS011;52947;50.842;6.084;2023-05-19T14:51:02;9.95;;;2.00;;
66143;SDS011;52947;50.842;6.084;2023-05-19T14:53:31;6.47;;;2.38;;
66143;SDS011;52947;50.842;6.084;2023-05-19T14:56:00;7.13;;;2.13;;
66143;SDS011;52947;50.842;6.084;2023-05-19T14:58:31;7.13;;;2.13;;
66143;SDS011;52947;50.842;6.084;2023-05-19T15:00:59;10.07;;;2.40;;
66143;SDS011;52947;50.842;6.084;2023-05-19T15:03:26;8.57;;;2.33;;
66143;SDS011;52947;50.842;6.084;2023-05-19T15:05:54;9.88;;;1.98;;
66143;SDS011;52947;50.842;6.084;2023-05-19T15:08:22;8.02;;;2.10;;
66143;SDS011;52947;50.842;6.084;2023-05-19T15:10:50;6.18;;;2.28;;
66143;SDS011;52947;50.842;6.084;2023-05-19T15:13:19;12.63;;;2.22;;
66143;SDS011;52947;50.842;6.084;2023-05-19T15:18:15;7.32;;;2.35;;